sensor_id;sensor_type;location;lat;lon;timestamp;P1;durP1;ratioP1;P2;durP2;ratioP2
52740;SDS011;38634;52.138;9.912;2022-10-31T00:00:14;5.32;;;2.53;;
52740;SDS011;38634;52.138;9.912;2022-10-31T00:02:58;4.45;;;2.38;;
52740;SDS011;38634;52.138;9.912;2022-10-31T00:05:43;2.45;;;2.13;;
52740;SDS011;38634;52.138;9.912;2022-10-31T00:08:30;5.32;;;2.45;;
52740;SDS011;38634;52.138;9.912;2022-10-31T00:11:14;3.50;;;2.60;;
52740;SDS011;38634;52.138;9.912;2022-10-31T00:13:59;2.42;;;2.22;;
52740;SDS011;38634;52.138;9.912;2022-10-31T00:16:44;12.57;;;3.42;;
52740;SDS011;38634;52.138;9.912;2022-10-31T00:19:28;9.48;;;2.55;;
52740;SDS011;38634;52.138;9.912;2022-10-31T00:22:13;8.48;;;2.78;;
52740;SDS011;38634;52.138;9.912;2022-10-31T00:24:58;11.60;;;2.80;;
52740;SDS011;38634;52.138;9.912;2022-10-31T00:27:42;14.55;;;3.30;;
52740;SDS011;38634;52.138;9.912;2022-10-31T00:30:27;10.68;;;2.92;;
52740;SDS011;38634;52.138;9.912;2022-10-31T00:33:11;14.15;;;3.38;;
52740;SDS011;38634;52.138;9.912;2022-10-31T00:35:56;11.35;;;3.15;;
52740;SDS011;38634;52.138;9.912;2022-10-31T00:38:41;4.18;;;2.38;;
52740;SDS011;38634;52.138;9.912;2022-10-31T00:41:26;3.50;;;2.28;;
52740;SDS011;38634;52.138;9.912;2022-10-31T00:44:10;3.25;;;2.35;;
52740;SDS011;38634;52.138;9.912;2022-10-31T00:46:55;5.30;;;2.13;;
52740;SDS011;38634;52.138;9.912;2022-10-31T00:49:40;3.70;;;2.17;;
52740;SDS011;38634;52.138;9.912;2022-10-31T00:52:24;3.83;;;1.98;;
52740;SDS011;38634;52.138;9.912;2022-10-31T00:55:09;3.92;;;2.50;;
52740;SDS011;38634;52.138;9.912;2022-10-31T00:57:53;2.63;;;1.92;;
52740;SDS011;38634;52.138;9.912;2022-10-31T01:00:38;4.68;;;2.65;;
52740;SDS011;38634;52.138;9.912;2022-10-31T01:03:26;4.55;;;2.88;;
52740;SDS011;38634;52.138;9.912;2022-10-31T01:06:13;6.47;;;2.60;;
52740;SDS011;38634;52.138;9.912;2022-10-31T01:08:59;15.00;;;4.32;;
52740;SDS011;38634;52.138;9.912;2022-10-31T01:11:44;12.60;;;3.33;;
52740;SDS011;38634;52.138;9.912;2022-10-31T01:14:28;8.50;;;2.80;;
52740;SDS011;38634;52.138;9.912;2022-10-31T01:17:13;5.32;;;2.85;;
52740;SDS011;38634;52.138;9.912;2022-10-31T01:19:58;6.07;;;2.95;;
52740;SDS011;38634;52.138;9.912;2022-10-31T01:22:42;6.18;;;3.17;;
52740;SDS011;38634;52.138;9.912;2022-10-31T01:25:27;4.35;;;2.55;;
52740;SDS011;38634;52.138;9.912;2022-10-31T01:28:12;5.20;;;3.13;;
52740;SDS011;38634;52.138;9.912;2022-10-31T01:30:59;3.92;;;3.10;;
52740;SDS011;38634;52.138;9.912;2022-10-31T01:33:50;2.72;;;2.25;;
52740;SDS011;38634;52.138;9.912;2022-10-31T01:36:37;14.80;;;3.40;;
52740;SDS011;38634;52.138;9.912;2022-10-31T01:39:22;11.68;;;4.03;;
52740;SDS011;38634;52.138;9.912;2022-10-31T01:42:07;13.80;;;3.70;;
52740;SDS011;38634;52.138;9.912;2022-10-31T01:45:00;14.55;;;3.70;;
52740;SDS011;38634;52.138;9.912;2022-10-31T01:47:45;14.00;;;3.58;;
52740;SDS011;38634;52.138;9.912;2022-10-31T01:50:32;26.25;;;3.70;;
52740;SDS011;38634;52.138;9.912;2022-10-31T01:53:19;14.43;;;4.20;;
52740;SDS011;38634;52.138;9.912;2022-10-31T01:56:04;14.95;;;4.05;;
52740;SDS011;38634;52.138;9.912;2022-10-31T01:58:49;14.90;;;3.92;;
52740;SDS011;38634;52.138;9.912;2022-10-31T02:01:34;14.90;;;4.82;;
52740;SDS011;38634;52.138;9.912;2022-10-31T02:04:19;5.90;;;2.75;;
52740;SDS011;38634;52.138;9.912;2022-10-31T02:07:09;14.85;;;4.00;;
52740;SDS011;38634;52.138;9.912;2022-10-31T02:09:58;9.10;;;2.60;;
52740;SDS011;38634;52.138;9.912;2022-10-31T02:12:43;13.48;;;3.63;;
52740;SDS011;38634;52.138;9.912;2022-10-31T02:15:29;13.15;;;3.60;;
52740;SDS011;38634;52.138;9.912;2022-10-31T02:18:15;12.85;;;3.55;;
52740;SDS011;38634;52.138;9.912;2022-10-31T02:21:06;16.65;;;4.05;;
52740;SDS011;38634;52.138;9.912;2022-10-31T02:42:26;12.18;;;3.47;;
52740;SDS011;38634;52.138;9.912;2022-10-31T02:45:20;9.73;;;3.13;;
52740;SDS011;38634;52.138;9.912;2022-10-31T02:48:12;15.25;;;3.90;;
52740;SDS011;38634;52.138;9.912;2022-10-31T02:51:02;15.88;;;4.10;;
52740;SDS011;38634;52.138;9.912;2022-10-31T02:53:47;14.68;;;3.88;;
52740;SDS011;38634;52.138;9.912;2022-10-31T02:56:32;16.05;;;4.18;;
52740;SDS011;38634;52.138;9.912;2022-10-31T02:59:16;9.23;;;2.55;;
52740;SDS011;38634;52.138;9.912;2022-10-31T03:02:22;14.02;;;3.55;;
52740;SDS011;38634;52.138;9.912;2022-10-31T03:12:08;13.75;;;3.45;;
52740;SDS011;38634;52.138;9.912;2022-10-31T03:15:03;4.97;;;2.75;;
52740;SDS011;38634;52.138;9.912;2022-10-31T03:18:09;14.32;;;3.88;;
52740;SDS011;38634;52.138;9.912;2022-10-31T03:21:19;15.93;;;4.53;;
52740;SDS011;38634;52.138;9.912;2022-10-31T03:24:11;13.80;;;3.78;;
52740;SDS011;38634;52.138;9.912;2022-10-31T03:26:57;14.38;;;3.65;;
52740;SDS011;38634;52.138;9.912;2022-10-31T03:29:43;13.95;;;3.80;;
52740;SDS011;38634;52.138;9.912;2022-10-31T03:32:32;11.07;;;3.15;;
52740;SDS011;38634;52.138;9.912;2022-10-31T03:35:23;13.43;;;3.67;;
52740;SDS011;38634;52.138;9.912;2022-10-31T03:38:08;11.40;;;3.20;;
52740;SDS011;38634;52.138;9.912;2022-10-31T03:40:54;11.82;;;3.25;;
52740;SDS011;38634;52.138;9.912;2022-10-31T03:43:42;11.77;;;3.05;;
52740;SDS011;38634;52.138;9.912;2022-10-31T03:46:35;11.40;;;3.20;;
52740;SDS011;38634;52.138;9.912;2022-10-31T03:49:20;12.75;;;3.40;;
52740;SDS011;38634;52.138;9.912;2022-10-31T03:55:20;15.77;;;3.75;;
52740;SDS011;38634;52.138;9.912;2022-10-31T03:58:43;16.15;;;3.92;;
52740;SDS011;38634;52.138;9.912;2022-10-31T04:02:07;12.38;;;3.10;;
52740;SDS011;38634;52.138;9.912;2022-10-31T04:04:58;15.38;;;3.85;;
52740;SDS011;38634;52.138;9.912;2022-10-31T04:07:44;9.75;;;3.50;;
52740;SDS011;38634;52.138;9.912;2022-10-31T04:10:31;8.88;;;2.80;;
52740;SDS011;38634;52.138;9.912;2022-10-31T04:13:17;11.30;;;3.80;;
52740;SDS011;38634;52.138;9.912;2022-10-31T04:16:08;13.07;;;3.78;;
52740;SDS011;38634;52.138;9.912;2022-10-31T04:18:53;15.00;;;3.83;;
52740;SDS011;38634;52.138;9.912;2022-10-31T04:21:37;15.57;;;4.20;;
52740;SDS011;38634;52.138;9.912;2022-10-31T12:44:38;13.98;;;2.78;;
52740;SDS011;38634;52.138;9.912;2022-10-31T13:00:26;13.32;;;4.13;;
52740;SDS011;38634;52.138;9.912;2022-10-31T13:06:05;25.42;;;5.60;;
52740;SDS011;38634;52.138;9.912;2022-10-31T13:09:00;41.50;;;8.55;;
52740;SDS011;38634;52.138;9.912;2022-10-31T13:11:57;24.90;;;6.13;;
52740;SDS011;38634;52.138;9.912;2022-10-31T13:17:38;19.33;;;4.70;;
52740;SDS011;38634;52.138;9.912;2022-10-31T13:20:39;54.78;;;10.20;;
52740;SDS011;38634;52.138;9.912;2022-10-31T13:23:34;22.23;;;5.78;;
52740;SDS011;38634;52.138;9.912;2022-10-31T13:26:21;40.30;;;8.77;;
52740;SDS011;38634;52.138;9.912;2022-10-31T13:29:32;15.60;;;4.45;;
52740;SDS011;38634;52.138;9.912;2022-10-31T13:32:25;18.40;;;4.72;;
52740;SDS011;38634;52.138;9.912;2022-10-31T13:35:24;26.10;;;6.38;;
52740;SDS011;38634;52.138;9.912;2022-10-31T13:41:40;23.33;;;7.57;;
52740;SDS011;38634;52.138;9.912;2022-10-31T13:44:44;34.78;;;8.38;;
52740;SDS011;38634;52.138;9.912;2022-10-31T13:47:28;40.30;;;9.45;;
52740;SDS011;38634;52.138;9.912;2022-10-31T13:50:29;33.92;;;8.77;;
52740;SDS011;38634;52.138;9.912;2022-10-31T13:53:19;40.80;;;9.30;;
52740;SDS011;38634;52.138;9.912;2022-10-31T13:59:02;37.47;;;9.25;;
52740;SDS011;38634;52.138;9.912;2022-10-31T14:01:54;14.55;;;4.18;;
52740;SDS011;38634;52.138;9.912;2022-10-31T14:08:17;14.40;;;4.18;;
52740;SDS011;38634;52.138;9.912;2022-10-31T14:11:04;35.85;;;9.27;;
52740;SDS011;38634;52.138;9.912;2022-10-31T14:13:51;39.78;;;9.02;;
52740;SDS011;38634;52.138;9.912;2022-10-31T14:16:35;20.05;;;5.88;;
52740;SDS011;38634;52.138;9.912;2022-10-31T14:19:22;16.67;;;5.32;;
52740;SDS011;38634;52.138;9.912;2022-10-31T14:22:18;36.33;;;8.30;;
52740;SDS011;38634;52.138;9.912;2022-10-31T14:28:21;20.13;;;5.82;;
52740;SDS011;38634;52.138;9.912;2022-10-31T14:31:38;39.10;;;10.88;;
52740;SDS011;38634;52.138;9.912;2022-10-31T14:34:36;18.80;;;5.45;;
52740;SDS011;38634;52.138;9.912;2022-10-31T14:43:35;22.17;;;6.18;;
52740;SDS011;38634;52.138;9.912;2022-10-31T14:46:41;25.92;;;5.78;;
52740;SDS011;38634;52.138;9.912;2022-10-31T14:52:56;12.93;;;3.25;;
52740;SDS011;38634;52.138;9.912;2022-10-31T14:55:44;22.60;;;5.90;;
52740;SDS011;38634;52.138;9.912;2022-10-31T14:58:42;39.80;;;8.98;;
52740;SDS011;38634;52.138;9.912;2022-10-31T15:01:30;20.52;;;6.47;;
52740;SDS011;38634;52.138;9.912;2022-10-31T15:04:30;40.08;;;8.90;;
52740;SDS011;38634;52.138;9.912;2022-10-31T15:07:19;20.23;;;6.03;;
52740;SDS011;38634;52.138;9.912;2022-10-31T15:10:20;32.45;;;7.78;;
52740;SDS011;38634;52.138;9.912;2022-10-31T15:13:10;30.67;;;7.53;;
52740;SDS011;38634;52.138;9.912;2022-10-31T15:16:02;41.80;;;9.00;;
52740;SDS011;38634;52.138;9.912;2022-10-31T15:18:50;13.52;;;3.75;;
52740;SDS011;38634;52.138;9.912;2022-10-31T15:21:40;41.22;;;8.90;;
52740;SDS011;38634;52.138;9.912;2022-10-31T15:24:33;26.23;;;6.43;;
52740;SDS011;38634;52.138;9.912;2022-10-31T15:27:20;34.08;;;7.70;;
52740;SDS011;38634;52.138;9.912;2022-10-31T15:30:15;55.42;;;10.00;;
52740;SDS011;38634;52.138;9.912;2022-10-31T15:33:14;22.60;;;5.57;;
52740;SDS011;38634;52.138;9.912;2022-10-31T15:36:04;36.00;;;8.27;;
52740;SDS011;38634;52.138;9.912;2022-10-31T15:38:49;24.30;;;5.85;;
52740;SDS011;38634;52.138;9.912;2022-10-31T15:41:42;22.20;;;6.50;;
52740;SDS011;38634;52.138;9.912;2022-10-31T15:44:37;17.13;;;4.85;;
52740;SDS011;38634;52.138;9.912;2022-10-31T15:47:25;39.03;;;8.65;;
52740;SDS011;38634;52.138;9.912;2022-10-31T15:50:26;43.53;;;9.35;;
52740;SDS011;38634;52.138;9.912;2022-10-31T15:53:26;37.05;;;8.82;;
52740;SDS011;38634;52.138;9.912;2022-10-31T15:56:32;33.50;;;7.63;;
52740;SDS011;38634;52.138;9.912;2022-10-31T15:59:19;20.55;;;6.05;;
52740;SDS011;38634;52.138;9.912;2022-10-31T16:02:09;27.27;;;6.95;;
52740;SDS011;38634;52.138;9.912;2022-10-31T16:04:57;29.15;;;7.20;;
52740;SDS011;38634;52.138;9.912;2022-10-31T16:07:58;29.67;;;7.45;;
52740;SDS011;38634;52.138;9.912;2022-10-31T16:10:43;33.58;;;8.30;;
52740;SDS011;38634;52.138;9.912;2022-10-31T16:13:38;30.92;;;7.55;;
52740;SDS011;38634;52.138;9.912;2022-10-31T16:16:42;38.78;;;9.00;;
52740;SDS011;38634;52.138;9.912;2022-10-31T16:19:34;37.47;;;9.35;;
52740;SDS011;38634;52.138;9.912;2022-10-31T16:22:25;54.45;;;10.20;;
52740;SDS011;38634;52.138;9.912;2022-10-31T16:25:18;29.33;;;6.82;;
52740;SDS011;38634;52.138;9.912;2022-10-31T16:28:20;33.00;;;6.63;;
52740;SDS011;38634;52.138;9.912;2022-10-31T16:31:14;41.22;;;10.35;;
52740;SDS011;38634;52.138;9.912;2022-10-31T16:34:15;35.00;;;8.90;;
52740;SDS011;38634;52.138;9.912;2022-10-31T16:37:11;28.25;;;7.28;;
52740;SDS011;38634;52.138;9.912;2022-10-31T16:39:56;14.75;;;4.38;;
52740;SDS011;38634;52.138;9.912;2022-10-31T16:42:41;27.65;;;6.90;;
52740;SDS011;38634;52.138;9.912;2022-10-31T16:45:28;31.83;;;8.50;;
52740;SDS011;38634;52.138;9.912;2022-10-31T16:48:19;15.98;;;5.43;;
52740;SDS011;38634;52.138;9.912;2022-10-31T16:51:09;27.50;;;8.02;;
52740;SDS011;38634;52.138;9.912;2022-10-31T16:53:54;39.70;;;9.38;;
52740;SDS011;38634;52.138;9.912;2022-10-31T16:56:39;31.52;;;7.28;;
52740;SDS011;38634;52.138;9.912;2022-10-31T16:59:23;18.75;;;6.07;;
52740;SDS011;38634;52.138;9.912;2022-10-31T17:02:13;29.08;;;6.88;;
52740;SDS011;38634;52.138;9.912;2022-10-31T17:04:59;41.90;;;8.82;;
52740;SDS011;38634;52.138;9.912;2022-10-31T17:07:43;21.23;;;4.85;;
52740;SDS011;38634;52.138;9.912;2022-10-31T17:10:29;12.82;;;4.53;;
52740;SDS011;38634;52.138;9.912;2022-10-31T17:13:19;30.40;;;7.43;;
52740;SDS011;38634;52.138;9.912;2022-10-31T17:16:06;34.00;;;8.10;;
52740;SDS011;38634;52.138;9.912;2022-10-31T17:18:51;17.33;;;5.43;;
52740;SDS011;38634;52.138;9.912;2022-10-31T17:21:35;18.33;;;5.80;;
52740;SDS011;38634;52.138;9.912;2022-10-31T17:24:20;32.08;;;7.85;;
52740;SDS011;38634;52.138;9.912;2022-10-31T17:27:06;39.38;;;10.32;;
52740;SDS011;38634;52.138;9.912;2022-10-31T17:29:51;17.90;;;5.85;;
52740;SDS011;38634;52.138;9.912;2022-10-31T17:32:36;18.50;;;5.65;;
52740;SDS011;38634;52.138;9.912;2022-10-31T17:35:21;39.13;;;9.90;;
52740;SDS011;38634;52.138;9.912;2022-10-31T17:38:06;32.13;;;8.32;;
52740;SDS011;38634;52.138;9.912;2022-10-31T17:40:51;26.05;;;6.90;;
52740;SDS011;38634;52.138;9.912;2022-10-31T17:43:35;20.73;;;6.03;;
52740;SDS011;38634;52.138;9.912;2022-10-31T17:46:20;21.45;;;6.75;;
52740;SDS011;38634;52.138;9.912;2022-10-31T17:49:09;39.83;;;9.93;;
52740;SDS011;38634;52.138;9.912;2022-10-31T17:51:55;26.50;;;7.32;;
52740;SDS011;38634;52.138;9.912;2022-10-31T17:54:39;29.83;;;7.97;;
52740;SDS011;38634;52.138;9.912;2022-10-31T17:57:24;21.38;;;6.22;;
52740;SDS011;38634;52.138;9.912;2022-10-31T18:00:10;35.10;;;8.80;;
52740;SDS011;38634;52.138;9.912;2022-10-31T18:03:00;30.02;;;7.90;;
52740;SDS011;38634;52.138;9.912;2022-10-31T18:05:58;14.27;;;4.60;;
52740;SDS011;38634;52.138;9.912;2022-10-31T18:08:47;24.85;;;7.53;;
52740;SDS011;38634;52.138;9.912;2022-10-31T18:11:41;16.05;;;5.40;;
52740;SDS011;38634;52.138;9.912;2022-10-31T18:14:33;25.45;;;6.40;;
52740;SDS011;38634;52.138;9.912;2022-10-31T18:17:18;23.55;;;5.53;;
52740;SDS011;38634;52.138;9.912;2022-10-31T18:20:03;23.05;;;5.60;;
52740;SDS011;38634;52.138;9.912;2022-10-31T18:22:48;9.05;;;4.28;;
52740;SDS011;38634;52.138;9.912;2022-10-31T18:25:33;13.60;;;4.75;;
52740;SDS011;38634;52.138;9.912;2022-10-31T18:28:19;10.55;;;4.60;;
52740;SDS011;38634;52.138;9.912;2022-10-31T18:31:04;9.63;;;3.97;;
52740;SDS011;38634;52.138;9.912;2022-10-31T18:33:51;7.63;;;3.95;;
52740;SDS011;38634;52.138;9.912;2022-10-31T18:36:39;6.72;;;3.60;;
52740;SDS011;38634;52.138;9.912;2022-10-31T18:39:24;10.23;;;4.22;;
52740;SDS011;38634;52.138;9.912;2022-10-31T18:42:08;7.22;;;3.60;;
52740;SDS011;38634;52.138;9.912;2022-10-31T18:44:53;13.00;;;3.75;;
52740;SDS011;38634;52.138;9.912;2022-10-31T18:47:38;11.35;;;3.78;;
52740;SDS011;38634;52.138;9.912;2022-10-31T18:50:22;10.23;;;3.95;;
52740;SDS011;38634;52.138;9.912;2022-10-31T18:53:07;11.50;;;4.95;;
52740;SDS011;38634;52.138;9.912;2022-10-31T18:55:52;18.25;;;5.28;;
52740;SDS011;38634;52.138;9.912;2022-10-31T18:58:37;10.32;;;4.57;;
52740;SDS011;38634;52.138;9.912;2022-10-31T19:01:21;21.50;;;6.40;;
52740;SDS011;38634;52.138;9.912;2022-10-31T19:04:06;11.20;;;3.40;;
52740;SDS011;38634;52.138;9.912;2022-10-31T19:06:50;8.38;;;3.53;;
52740;SDS011;38634;52.138;9.912;2022-10-31T19:09:35;9.05;;;3.63;;
52740;SDS011;38634;52.138;9.912;2022-10-31T19:12:20;12.82;;;4.00;;
52740;SDS011;38634;52.138;9.912;2022-10-31T19:15:05;13.88;;;3.65;;
52740;SDS011;38634;52.138;9.912;2022-10-31T19:17:49;12.57;;;4.38;;
52740;SDS011;38634;52.138;9.912;2022-10-31T19:20:36;10.98;;;3.83;;
52740;SDS011;38634;52.138;9.912;2022-10-31T19:23:21;15.77;;;4.22;;
52740;SDS011;38634;52.138;9.912;2022-10-31T19:26:06;16.95;;;5.00;;
52740;SDS011;38634;52.138;9.912;2022-10-31T19:28:51;9.63;;;3.25;;
52740;SDS011;38634;52.138;9.912;2022-10-31T19:31:36;3.95;;;2.75;;
52740;SDS011;38634;52.138;9.912;2022-10-31T19:34:21;5.80;;;3.70;;
52740;SDS011;38634;52.138;9.912;2022-10-31T19:37:05;11.43;;;3.80;;
52740;SDS011;38634;52.138;9.912;2022-10-31T19:39:50;9.98;;;3.33;;
52740;SDS011;38634;52.138;9.912;2022-10-31T19:42:35;5.43;;;3.53;;
52740;SDS011;38634;52.138;9.912;2022-10-31T19:45:20;5.05;;;2.92;;
52740;SDS011;38634;52.138;9.912;2022-10-31T19:48:04;6.82;;;3.47;;
52740;SDS011;38634;52.138;9.912;2022-10-31T19:50:49;6.15;;;3.35;;
52740;SDS011;38634;52.138;9.912;2022-10-31T19:53:34;6.32;;;3.30;;
52740;SDS011;38634;52.138;9.912;2022-10-31T19:56:22;9.07;;;2.97;;
52740;SDS011;38634;52.138;9.912;2022-10-31T19:59:07;5.18;;;3.50;;
52740;SDS011;38634;52.138;9.912;2022-10-31T20:01:52;4.50;;;3.22;;
52740;SDS011;38634;52.138;9.912;2022-10-31T20:04:36;13.75;;;4.53;;
52740;SDS011;38634;52.138;9.912;2022-10-31T20:07:21;10.77;;;4.13;;
52740;SDS011;38634;52.138;9.912;2022-10-31T20:10:06;12.02;;;4.68;;
52740;SDS011;38634;52.138;9.912;2022-10-31T20:12:51;11.15;;;3.53;;
52740;SDS011;38634;52.138;9.912;2022-10-31T20:15:36;14.35;;;5.00;;
52740;SDS011;38634;52.138;9.912;2022-10-31T20:18:20;12.02;;;4.28;;
52740;SDS011;38634;52.138;9.912;2022-10-31T20:21:06;14.80;;;5.15;;
52740;SDS011;38634;52.138;9.912;2022-10-31T20:23:57;13.65;;;4.22;;
52740;SDS011;38634;52.138;9.912;2022-10-31T20:26:44;14.55;;;4.53;;
52740;SDS011;38634;52.138;9.912;2022-10-31T20:29:28;15.27;;;3.92;;
52740;SDS011;38634;52.138;9.912;2022-10-31T20:32:13;9.18;;;3.63;;
52740;SDS011;38634;52.138;9.912;2022-10-31T20:34:58;12.43;;;4.22;;
52740;SDS011;38634;52.138;9.912;2022-10-31T20:37:42;8.30;;;4.10;;
52740;SDS011;38634;52.138;9.912;2022-10-31T20:40:27;8.57;;;4.50;;
52740;SDS011;38634;52.138;9.912;2022-10-31T20:43:12;3.75;;;3.35;;
52740;SDS011;38634;52.138;9.912;2022-10-31T20:46:04;5.72;;;4.43;;
52740;SDS011;38634;52.138;9.912;2022-10-31T20:49:01;13.60;;;3.78;;
52740;SDS011;38634;52.138;9.912;2022-10-31T20:51:46;4.35;;;3.20;;
52740;SDS011;38634;52.138;9.912;2022-10-31T20:54:30;2.90;;;2.60;;
52740;SDS011;38634;52.138;9.912;2022-10-31T20:57:15;4.82;;;3.25;;
52740;SDS011;38634;52.138;9.912;2022-10-31T21:00:00;6.47;;;4.55;;
52740;SDS011;38634;52.138;9.912;2022-10-31T21:02:45;4.28;;;2.97;;
52740;SDS011;38634;52.138;9.912;2022-10-31T21:05:29;9.23;;;4.78;;
52740;SDS011;38634;52.138;9.912;2022-10-31T21:08:14;4.88;;;4.40;;
52740;SDS011;38634;52.138;9.912;2022-10-31T21:10:59;14.32;;;4.82;;
52740;SDS011;38634;52.138;9.912;2022-10-31T21:13:44;10.07;;;2.88;;
52740;SDS011;38634;52.138;9.912;2022-10-31T21:16:30;15.52;;;4.65;;
52740;SDS011;38634;52.138;9.912;2022-10-31T21:19:18;12.77;;;4.05;;
52740;SDS011;38634;52.138;9.912;2022-10-31T21:22:03;12.55;;;3.58;;
52740;SDS011;38634;52.138;9.912;2022-10-31T21:24:47;9.77;;;3.42;;
52740;SDS011;38634;52.138;9.912;2022-10-31T21:27:32;15.05;;;4.88;;
52740;SDS011;38634;52.138;9.912;2022-10-31T21:30:17;10.40;;;3.03;;
52740;SDS011;38634;52.138;9.912;2022-10-31T21:33:01;16.45;;;4.82;;
52740;SDS011;38634;52.138;9.912;2022-10-31T21:35:49;9.90;;;3.42;;
52740;SDS011;38634;52.138;9.912;2022-10-31T21:38:34;13.70;;;4.78;;
52740;SDS011;38634;52.138;9.912;2022-10-31T21:41:22;16.20;;;5.75;;
52740;SDS011;38634;52.138;9.912;2022-10-31T21:44:08;17.75;;;6.00;;
52740;SDS011;38634;52.138;9.912;2022-10-31T21:46:53;14.32;;;4.55;;
52740;SDS011;38634;52.138;9.912;2022-10-31T21:49:38;13.85;;;5.32;;
52740;SDS011;38634;52.138;9.912;2022-10-31T21:52:22;15.52;;;5.50;;
52740;SDS011;38634;52.138;9.912;2022-10-31T21:55:07;14.73;;;5.35;;
52740;SDS011;38634;52.138;9.912;2022-10-31T21:57:53;3.97;;;3.17;;
52740;SDS011;38634;52.138;9.912;2022-10-31T22:00:37;6.43;;;5.05;;
52740;SDS011;38634;52.138;9.912;2022-10-31T22:03:22;9.68;;;5.00;;
52740;SDS011;38634;52.138;9.912;2022-10-31T22:06:08;6.10;;;3.75;;
52740;SDS011;38634;52.138;9.912;2022-10-31T22:08:53;6.10;;;4.53;;
52740;SDS011;38634;52.138;9.912;2022-10-31T22:11:38;4.13;;;3.28;;
52740;SDS011;38634;52.138;9.912;2022-10-31T22:14:24;8.57;;;4.07;;
52740;SDS011;38634;52.138;9.912;2022-10-31T22:17:08;7.40;;;3.95;;
52740;SDS011;38634;52.138;9.912;2022-10-31T22:19:53;7.10;;;4.03;;
52740;SDS011;38634;52.138;9.912;2022-10-31T22:22:38;4.90;;;4.00;;
52740;SDS011;38634;52.138;9.912;2022-10-31T22:25:22;13.00;;;3.92;;
52740;SDS011;38634;52.138;9.912;2022-10-31T22:28:07;15.18;;;4.65;;
52740;SDS011;38634;52.138;9.912;2022-10-31T22:30:51;14.70;;;4.40;;
52740;SDS011;38634;52.138;9.912;2022-10-31T22:33:36;14.95;;;4.65;;
52740;SDS011;38634;52.138;9.912;2022-10-31T22:36:22;16.92;;;5.32;;
52740;SDS011;38634;52.138;9.912;2022-10-31T22:39:10;18.90;;;6.20;;
52740;SDS011;38634;52.138;9.912;2022-10-31T22:41:58;11.48;;;4.22;;
52740;SDS011;38634;52.138;9.912;2022-10-31T22:44:42;11.30;;;3.92;;
52740;SDS011;38634;52.138;9.912;2022-10-31T22:47:27;3.85;;;3.28;;
52740;SDS011;38634;52.138;9.912;2022-10-31T22:50:11;3.78;;;3.42;;
52740;SDS011;38634;52.138;9.912;2022-10-31T22:52:56;3.30;;;2.88;;
52740;SDS011;38634;52.138;9.912;2022-10-31T22:55:41;5.93;;;3.38;;
52740;SDS011;38634;52.138;9.912;2022-10-31T22:58:27;5.80;;;3.42;;
52740;SDS011;38634;52.138;9.912;2022-10-31T23:01:14;14.73;;;4.93;;
52740;SDS011;38634;52.138;9.912;2022-10-31T23:04:00;15.55;;;4.18;;
52740;SDS011;38634;52.138;9.912;2022-10-31T23:06:45;10.77;;;4.15;;
52740;SDS011;38634;52.138;9.912;2022-10-31T23:09:29;14.38;;;4.22;;
52740;SDS011;38634;52.138;9.912;2022-10-31T23:12:14;12.80;;;4.43;;
52740;SDS011;38634;52.138;9.912;2022-10-31T23:15:17;10.10;;;3.42;;
52740;SDS011;38634;52.138;9.912;2022-10-31T23:18:02;9.68;;;3.92;;
52740;SDS011;38634;52.138;9.912;2022-10-31T23:20:53;8.73;;;3.47;;
52740;SDS011;38634;52.138;9.912;2022-10-31T23:23:37;15.10;;;5.43;;
52740;SDS011;38634;52.138;9.912;2022-10-31T23:26:22;12.57;;;3.95;;
52740;SDS011;38634;52.138;9.912;2022-10-31T23:29:26;11.50;;;3.90;;
52740;SDS011;38634;52.138;9.912;2022-10-31T23:35:08;5.82;;;3.80;;
52740;SDS011;38634;52.138;9.912;2022-10-31T23:37:53;5.75;;;3.75;;
52740;SDS011;38634;52.138;9.912;2022-10-31T23:40:37;6.65;;;3.75;;
52740;SDS011;38634;52.138;9.912;2022-10-31T23:43:23;5.72;;;3.63;;
52740;SDS011;38634;52.138;9.912;2022-10-31T23:46:07;7.97;;;3.35;;
52740;SDS011;38634;52.138;9.912;2022-10-31T23:48:52;7.38;;;3.28;;
52740;SDS011;38634;52.138;9.912;2022-10-31T23:51:37;9.80;;;3.83;;
52740;SDS011;38634;52.138;9.912;2022-10-31T23:54:22;3.35;;;3.10;;
52740;SDS011;38634;52.138;9.912;2022-10-31T23:57:08;4.63;;;2.63;;
52740;SDS011;38634;52.138;9.912;2022-10-31T23:59:57;3.95;;;2.83;;
